Terminal Aerodrome Forecast
Issued by NWS

Home | Current Version | Previous Version | Text Only | Print | Product List | Glossary On
Versions: 1 2 3 4 5 6 7 8 9 10 11 12 13 14 15 16 17 18 19 20 21
000
FTUS43 KICT 261724
TAFHUT
TAF
KHUT 261724Z 2618/2718 07014G19KT 4SM BR OVC007
     FM262200 08017G23KT P6SM OVC015
     FM270200 07015KT P6SM BKN025
     FM271200 07015KT P6SM VCSH SCT030 BKN060=

USA.gov is the U.S. government's official web portal to all federal, state and local government web resources and services.